sensor_id;sensor_type;location;lat;lon;timestamp;temperature;humidity
49132;DHT22;35149;51.196;6.204;2022-12-05T00:01:34;7.20;68.20
49132;DHT22;35149;51.196;6.204;2022-12-05T00:04:05;7.20;68.20
49132;DHT22;35149;51.196;6.204;2022-12-05T00:06:33;7.20;68.20
49132;DHT22;35149;51.196;6.204;2022-12-05T00:09:00;7.20;68.20
49132;DHT22;35149;51.196;6.204;2022-12-05T00:11:29;7.20;68.20
49132;DHT22;35149;51.196;6.204;2022-12-05T00:13:58;7.30;68.30
49132;DHT22;35149;51.196;6.204;2022-12-05T00:16:26;7.30;68.30
49132;DHT22;35149;51.196;6.204;2022-12-05T00:18:54;7.30;68.20
49132;DHT22;35149;51.196;6.204;2022-12-05T00:21:24;7.30;68.00
49132;DHT22;35149;51.196;6.204;2022-12-05T00:23:52;7.30;68.00
49132;DHT22;35149;51.196;6.204;2022-12-05T00:26:19;7.30;68.00
49132;DHT22;35149;51.196;6.204;2022-12-05T00:28:46;7.30;68.10
49132;DHT22;35149;51.196;6.204;2022-12-05T00:31:16;7.30;68.10
49132;DHT22;35149;51.196;6.204;2022-12-05T00:33:43;7.30;68.10
49132;DHT22;35149;51.196;6.204;2022-12-05T00:36:13;7.30;68.10
49132;DHT22;35149;51.196;6.204;2022-12-05T00:38:43;7.30;68.10
49132;DHT22;35149;51.196;6.204;2022-12-05T00:41:28;7.30;68.00
49132;DHT22;35149;51.196;6.204;2022-12-05T00:43:57;7.30;68.20
49132;DHT22;35149;51.196;6.204;2022-12-05T00:46:28;7.30;68.00
49132;DHT22;35149;51.196;6.204;2022-12-05T00:49:02;7.30;68.00
49132;DHT22;35149;51.196;6.204;2022-12-05T00:51:31;7.30;68.00
49132;DHT22;35149;51.196;6.204;2022-12-05T00:54:08;7.30;68.00
49132;DHT22;35149;51.196;6.204;2022-12-05T00:56:36;7.30;68.00
49132;DHT22;35149;51.196;6.204;2022-12-05T00:59:03;7.30;67.90
49132;DHT22;35149;51.196;6.204;2022-12-05T01:01:36;7.30;67.90
49132;DHT22;35149;51.196;6.204;2022-12-05T01:04:08;7.30;68.10
49132;DHT22;35149;51.196;6.204;2022-12-05T01:06:39;7.20;68.00
49132;DHT22;35149;51.196;6.204;2022-12-05T01:09:06;7.20;68.10
49132;DHT22;35149;51.196;6.204;2022-12-05T01:11:34;7.20;68.20
49132;DHT22;35149;51.196;6.204;2022-12-05T01:14:09;7.20;68.30
49132;DHT22;35149;51.196;6.204;2022-12-05T01:16:37;7.20;68.30
49132;DHT22;35149;51.196;6.204;2022-12-05T01:19:11;7.20;68.40
49132;DHT22;35149;51.196;6.204;2022-12-05T01:21:38;7.30;68.60
49132;DHT22;35149;51.196;6.204;2022-12-05T01:24:09;7.30;68.50
49132;DHT22;35149;51.196;6.204;2022-12-05T01:26:42;7.20;68.50
49132;DHT22;35149;51.196;6.204;2022-12-05T01:29:14;7.30;68.50
49132;DHT22;35149;51.196;6.204;2022-12-05T01:31:41;7.30;68.40
49132;DHT22;35149;51.196;6.204;2022-12-05T01:34:13;7.30;68.40
49132;DHT22;35149;51.196;6.204;2022-12-05T01:36:43;7.30;68.50
49132;DHT22;35149;51.196;6.204;2022-12-05T01:39:12;7.30;68.50
49132;DHT22;35149;51.196;6.204;2022-12-05T01:41:43;7.30;68.40
49132;DHT22;35149;51.196;6.204;2022-12-05T01:46:48;7.30;68.50
49132;DHT22;35149;51.196;6.204;2022-12-05T01:49:30;7.40;68.70
49132;DHT22;35149;51.196;6.204;2022-12-05T01:52:03;7.40;69.00
49132;DHT22;35149;51.196;6.204;2022-12-05T01:54:31;7.40;68.80
49132;DHT22;35149;51.196;6.204;2022-12-05T01:57:05;7.40;68.70
49132;DHT22;35149;51.196;6.204;2022-12-05T01:59:36;7.40;68.50
49132;DHT22;35149;51.196;6.204;2022-12-05T02:02:04;7.40;68.40
49132;DHT22;35149;51.196;6.204;2022-12-05T02:04:36;7.40;68.40
49132;DHT22;35149;51.196;6.204;2022-12-05T02:07:03;7.40;68.30
49132;DHT22;35149;51.196;6.204;2022-12-05T02:09:30;7.50;68.60
49132;DHT22;35149;51.196;6.204;2022-12-05T02:12:01;7.40;67.90
49132;DHT22;35149;51.196;6.204;2022-12-05T02:14:41;7.40;67.90
49132;DHT22;35149;51.196;6.204;2022-12-05T02:20:25;7.40;68.30
49132;DHT22;35149;51.196;6.204;2022-12-05T02:25:59;7.40;68.30
49132;DHT22;35149;51.196;6.204;2022-12-05T02:28:46;7.40;68.30
49132;DHT22;35149;51.196;6.204;2022-12-05T02:31:35;7.40;68.20
49132;DHT22;35149;51.196;6.204;2022-12-05T02:34:18;7.40;68.20
49132;DHT22;35149;51.196;6.204;2022-12-05T02:42:14;7.30;68.10
49132;DHT22;35149;51.196;6.204;2022-12-05T02:44:53;7.30;68.20
49132;DHT22;35149;51.196;6.204;2022-12-05T02:47:25;7.30;68.20
49132;DHT22;35149;51.196;6.204;2022-12-05T02:50:00;7.30;68.20
49132;DHT22;35149;51.196;6.204;2022-12-05T02:52:29;7.30;68.50
49132;DHT22;35149;51.196;6.204;2022-12-05T02:54:59;7.30;68.40
49132;DHT22;35149;51.196;6.204;2022-12-05T02:57:26;7.30;68.50
49132;DHT22;35149;51.196;6.204;2022-12-05T02:59:54;7.30;68.50
49132;DHT22;35149;51.196;6.204;2022-12-05T03:02:26;7.30;68.50
49132;DHT22;35149;51.196;6.204;2022-12-05T03:05:01;7.30;68.60
49132;DHT22;35149;51.196;6.204;2022-12-05T03:07:35;7.30;68.60
49132;DHT22;35149;51.196;6.204;2022-12-05T03:10:11;7.40;68.70
49132;DHT22;35149;51.196;6.204;2022-12-05T03:12:47;7.40;68.70
49132;DHT22;35149;51.196;6.204;2022-12-05T03:15:21;7.40;68.70
49132;DHT22;35149;51.196;6.204;2022-12-05T03:17:59;7.40;68.60
49132;DHT22;35149;51.196;6.204;2022-12-05T03:20:35;7.40;68.60
49132;DHT22;35149;51.196;6.204;2022-12-05T03:23:17;7.40;68.50
49132;DHT22;35149;51.196;6.204;2022-12-05T03:28:27;7.40;68.40
49132;DHT22;35149;51.196;6.204;2022-12-05T03:31:08;7.40;68.70
49132;DHT22;35149;51.196;6.204;2022-12-05T03:33:40;7.50;68.70
49132;DHT22;35149;51.196;6.204;2022-12-05T03:36:19;7.50;68.60
49132;DHT22;35149;51.196;6.204;2022-12-05T03:39:17;7.50;68.50
49132;DHT22;35149;51.196;6.204;2022-12-05T03:42:00;7.50;68.80
49132;DHT22;35149;51.196;6.204;2022-12-05T03:44:38;7.50;68.50
49132;DHT22;35149;51.196;6.204;2022-12-05T03:47:37;7.50;68.50
49132;DHT22;35149;51.196;6.204;2022-12-05T03:50:24;7.50;68.40
49132;DHT22;35149;51.196;6.204;2022-12-05T03:53:04;7.50;68.40
49132;DHT22;35149;51.196;6.204;2022-12-05T03:56:21;7.50;68.40
49132;DHT22;35149;51.196;6.204;2022-12-05T03:59:09;7.50;68.60
49132;DHT22;35149;51.196;6.204;2022-12-05T04:01:38;7.50;68.30
49132;DHT22;35149;51.196;6.204;2022-12-05T04:04:17;7.50;68.20
49132;DHT22;35149;51.196;6.204;2022-12-05T04:06:46;7.50;68.30
49132;DHT22;35149;51.196;6.204;2022-12-05T04:09:25;7.50;68.30
49132;DHT22;35149;51.196;6.204;2022-12-05T04:12:05;7.50;68.40
49132;DHT22;35149;51.196;6.204;2022-12-05T04:14:42;7.50;68.40
49132;DHT22;35149;51.196;6.204;2022-12-05T04:17:30;7.50;68.50
49132;DHT22;35149;51.196;6.204;2022-12-05T04:20:09;7.50;68.70
49132;DHT22;35149;51.196;6.204;2022-12-05T04:22:55;7.50;68.60
49132;DHT22;35149;51.196;6.204;2022-12-05T04:25:27;7.50;68.40
49132;DHT22;35149;51.196;6.204;2022-12-05T04:30:54;7.50;68.50
49132;DHT22;35149;51.196;6.204;2022-12-05T04:33:49;7.50;68.50
49132;DHT22;35149;51.196;6.204;2022-12-05T04:36:37;7.50;68.70
49132;DHT22;35149;51.196;6.204;2022-12-05T04:39:11;7.50;68.40
49132;DHT22;35149;51.196;6.204;2022-12-05T04:41:53;7.50;69.20
49132;DHT22;35149;51.196;6.204;2022-12-05T04:44:25;7.50;68.20
49132;DHT22;35149;51.196;6.204;2022-12-05T04:46:59;7.50;68.20
49132;DHT22;35149;51.196;6.204;2022-12-05T04:49:29;7.50;68.40
49132;DHT22;35149;51.196;6.204;2022-12-05T04:52:03;7.50;68.40
49132;DHT22;35149;51.196;6.204;2022-12-05T04:57:57;7.50;69.10
49132;DHT22;35149;51.196;6.204;2022-12-05T05:00:28;7.50;69.20
49132;DHT22;35149;51.196;6.204;2022-12-05T05:03:07;7.50;68.70
49132;DHT22;35149;51.196;6.204;2022-12-05T05:05:36;7.50;68.80
49132;DHT22;35149;51.196;6.204;2022-12-05T05:08:04;7.50;68.70
49132;DHT22;35149;51.196;6.204;2022-12-05T05:10:38;7.50;68.80
49132;DHT22;35149;51.196;6.204;2022-12-05T05:13:06;7.50;68.80
49132;DHT22;35149;51.196;6.204;2022-12-05T05:15:33;7.50;68.70
49132;DHT22;35149;51.196;6.204;2022-12-05T05:17:59;7.50;68.90
49132;DHT22;35149;51.196;6.204;2022-12-05T05:20:26;7.50;69.00
49132;DHT22;35149;51.196;6.204;2022-12-05T05:22:57;7.50;69.00
49132;DHT22;35149;51.196;6.204;2022-12-05T05:25:24;7.50;69.50
49132;DHT22;35149;51.196;6.204;2022-12-05T05:27:53;7.50;69.10
49132;DHT22;35149;51.196;6.204;2022-12-05T05:30:21;7.50;69.00
49132;DHT22;35149;51.196;6.204;2022-12-05T05:32:48;7.50;68.90
49132;DHT22;35149;51.196;6.204;2022-12-05T05:35:15;7.50;69.00
49132;DHT22;35149;51.196;6.204;2022-12-05T05:37:42;7.50;69.00
49132;DHT22;35149;51.196;6.204;2022-12-05T05:40:10;7.50;69.10
49132;DHT22;35149;51.196;6.204;2022-12-05T05:42:45;7.50;69.20
49132;DHT22;35149;51.196;6.204;2022-12-05T05:45:13;7.50;69.20
49132;DHT22;35149;51.196;6.204;2022-12-05T05:47:41;7.50;69.00
49132;DHT22;35149;51.196;6.204;2022-12-05T05:50:09;7.50;69.60
49132;DHT22;35149;51.196;6.204;2022-12-05T05:52:41;7.50;69.00
49132;DHT22;35149;51.196;6.204;2022-12-05T05:55:09;7.50;69.00
49132;DHT22;35149;51.196;6.204;2022-12-05T05:57:36;7.50;69.00
49132;DHT22;35149;51.196;6.204;2022-12-05T06:00:05;7.50;69.00
49132;DHT22;35149;51.196;6.204;2022-12-05T06:02:33;7.50;69.10
49132;DHT22;35149;51.196;6.204;2022-12-05T06:05:01;7.50;69.20
49132;DHT22;35149;51.196;6.204;2022-12-05T06:07:27;7.50;69.10
49132;DHT22;35149;51.196;6.204;2022-12-05T06:09:54;7.50;69.10
49132;DHT22;35149;51.196;6.204;2022-12-05T06:12:22;7.50;69.00
49132;DHT22;35149;51.196;6.204;2022-12-05T06:14:49;7.50;69.10
49132;DHT22;35149;51.196;6.204;2022-12-05T06:17:16;7.50;69.20
49132;DHT22;35149;51.196;6.204;2022-12-05T06:19:42;7.50;69.40
49132;DHT22;35149;51.196;6.204;2022-12-05T06:22:09;7.50;70.10
49132;DHT22;35149;51.196;6.204;2022-12-05T06:24:36;7.50;70.30
49132;DHT22;35149;51.196;6.204;2022-12-05T06:27:03;7.50;69.50
49132;DHT22;35149;51.196;6.204;2022-12-05T06:29:30;7.50;69.50
49132;DHT22;35149;51.196;6.204;2022-12-05T06:32:00;7.50;69.40
49132;DHT22;35149;51.196;6.204;2022-12-05T06:34:27;7.50;69.30
49132;DHT22;35149;51.196;6.204;2022-12-05T06:36:53;7.50;69.30
49132;DHT22;35149;51.196;6.204;2022-12-05T06:39:20;7.50;69.30
49132;DHT22;35149;51.196;6.204;2022-12-05T06:41:47;7.50;69.30
49132;DHT22;35149;51.196;6.204;2022-12-05T06:44:13;7.50;69.30
49132;DHT22;35149;51.196;6.204;2022-12-05T06:46:40;7.50;69.30
49132;DHT22;35149;51.196;6.204;2022-12-05T06:49:12;7.50;70.00
49132;DHT22;35149;51.196;6.204;2022-12-05T06:51:38;7.50;69.50
49132;DHT22;35149;51.196;6.204;2022-12-05T06:54:10;7.50;69.50
49132;DHT22;35149;51.196;6.204;2022-12-05T06:56:36;7.50;69.50
49132;DHT22;35149;51.196;6.204;2022-12-05T06:59:03;7.50;69.50
49132;DHT22;35149;51.196;6.204;2022-12-05T07:01:30;7.50;69.50
49132;DHT22;35149;51.196;6.204;2022-12-05T07:04:16;7.50;69.60
49132;DHT22;35149;51.196;6.204;2022-12-05T07:06:46;7.50;69.60
49132;DHT22;35149;51.196;6.204;2022-12-05T07:09:23;7.50;69.70
49132;DHT22;35149;51.196;6.204;2022-12-05T07:12:12;7.50;69.80
49132;DHT22;35149;51.196;6.204;2022-12-05T07:14:38;7.50;69.70
49132;DHT22;35149;51.196;6.204;2022-12-05T07:17:19;7.50;69.70
49132;DHT22;35149;51.196;6.204;2022-12-05T07:19:47;7.50;69.80
49132;DHT22;35149;51.196;6.204;2022-12-05T07:22:15;7.50;69.80
49132;DHT22;35149;51.196;6.204;2022-12-05T07:24:43;7.60;69.80
49132;DHT22;35149;51.196;6.204;2022-12-05T07:27:11;7.60;69.90
49132;DHT22;35149;51.196;6.204;2022-12-05T07:29:38;7.50;69.80
49132;DHT22;35149;51.196;6.204;2022-12-05T07:32:05;7.50;69.90
49132;DHT22;35149;51.196;6.204;2022-12-05T07:34:31;7.60;70.00
49132;DHT22;35149;51.196;6.204;2022-12-05T07:36:59;7.60;70.00
49132;DHT22;35149;51.196;6.204;2022-12-05T07:39:26;7.60;70.10
49132;DHT22;35149;51.196;6.204;2022-12-05T07:41:52;7.60;70.00
49132;DHT22;35149;51.196;6.204;2022-12-05T07:44:19;7.60;70.00
49132;DHT22;35149;51.196;6.204;2022-12-05T07:46:46;7.60;69.90
49132;DHT22;35149;51.196;6.204;2022-12-05T07:49:15;7.60;69.80
49132;DHT22;35149;51.196;6.204;2022-12-05T07:51:44;7.60;69.90
49132;DHT22;35149;51.196;6.204;2022-12-05T07:54:11;7.60;69.90
49132;DHT22;35149;51.196;6.204;2022-12-05T07:56:38;7.60;70.00
49132;DHT22;35149;51.196;6.204;2022-12-05T07:59:12;7.60;69.90
49132;DHT22;35149;51.196;6.204;2022-12-05T08:01:39;7.60;69.70
49132;DHT22;35149;51.196;6.204;2022-12-05T08:04:06;7.60;69.70
49132;DHT22;35149;51.196;6.204;2022-12-05T08:06:40;7.60;69.70
49132;DHT22;35149;51.196;6.204;2022-12-05T08:09:09;7.60;69.70
49132;DHT22;35149;51.196;6.204;2022-12-05T08:11:36;7.60;69.70
49132;DHT22;35149;51.196;6.204;2022-12-05T08:14:04;7.60;69.70
49132;DHT22;35149;51.196;6.204;2022-12-05T08:16:32;7.60;69.70
49132;DHT22;35149;51.196;6.204;2022-12-05T08:19:04;7.60;69.70
49132;DHT22;35149;51.196;6.204;2022-12-05T08:21:32;7.60;69.70
49132;DHT22;35149;51.196;6.204;2022-12-05T08:23:59;7.60;69.50
49132;DHT22;35149;51.196;6.204;2022-12-05T08:26:30;7.60;69.40
49132;DHT22;35149;51.196;6.204;2022-12-05T08:29:03;7.60;69.50
49132;DHT22;35149;51.196;6.204;2022-12-05T08:31:33;7.60;69.50
49132;DHT22;35149;51.196;6.204;2022-12-05T08:34:03;7.50;69.30
49132;DHT22;35149;51.196;6.204;2022-12-05T08:36:30;7.50;69.20
49132;DHT22;35149;51.196;6.204;2022-12-05T08:38:59;7.50;69.30
49132;DHT22;35149;51.196;6.204;2022-12-05T08:41:27;7.50;69.30
49132;DHT22;35149;51.196;6.204;2022-12-05T08:43:58;7.50;69.30
49132;DHT22;35149;51.196;6.204;2022-12-05T08:46:26;7.50;69.20
49132;DHT22;35149;51.196;6.204;2022-12-05T08:48:53;7.40;69.30
49132;DHT22;35149;51.196;6.204;2022-12-05T08:51:20;7.50;69.40
49132;DHT22;35149;51.196;6.204;2022-12-05T08:53:47;7.50;69.40
49132;DHT22;35149;51.196;6.204;2022-12-05T08:56:14;7.50;69.40
49132;DHT22;35149;51.196;6.204;2022-12-05T08:58:40;7.40;69.30
49132;DHT22;35149;51.196;6.204;2022-12-05T09:03:34;7.40;69.30
49132;DHT22;35149;51.196;6.204;2022-12-05T09:08:38;7.50;69.30
49132;DHT22;35149;51.196;6.204;2022-12-05T09:11:16;7.40;69.20
49132;DHT22;35149;51.196;6.204;2022-12-05T09:13:44;7.40;69.20
49132;DHT22;35149;51.196;6.204;2022-12-05T09:16:18;7.40;69.10
49132;DHT22;35149;51.196;6.204;2022-12-05T09:18:46;7.40;69.10
49132;DHT22;35149;51.196;6.204;2022-12-05T09:21:16;7.40;69.00
49132;DHT22;35149;51.196;6.204;2022-12-05T09:23:43;7.40;69.10
49132;DHT22;35149;51.196;6.204;2022-12-05T09:26:12;7.40;69.00
49132;DHT22;35149;51.196;6.204;2022-12-05T09:28:40;7.40;69.20
49132;DHT22;35149;51.196;6.204;2022-12-05T09:31:10;7.40;69.20
49132;DHT22;35149;51.196;6.204;2022-12-05T09:33:37;7.40;69.20
49132;DHT22;35149;51.196;6.204;2022-12-05T09:36:12;7.40;69.20
49132;DHT22;35149;51.196;6.204;2022-12-05T09:38:39;7.40;69.20
49132;DHT22;35149;51.196;6.204;2022-12-05T09:52:48;7.50;69.00
49132;DHT22;35149;51.196;6.204;2022-12-05T09:55:18;7.50;68.50
49132;DHT22;35149;51.196;6.204;2022-12-05T09:57:56;7.50;68.40
49132;DHT22;35149;51.196;6.204;2022-12-05T10:00:25;7.50;68.10
49132;DHT22;35149;51.196;6.204;2022-12-05T10:03:24;7.60;68.20
49132;DHT22;35149;51.196;6.204;2022-12-05T10:12:01;7.50;67.60
49132;DHT22;35149;51.196;6.204;2022-12-05T10:17:25;7.50;67.80
49132;DHT22;35149;51.196;6.204;2022-12-05T10:19:56;7.50;67.70
49132;DHT22;35149;51.196;6.204;2022-12-05T10:22:38;7.40;67.60
49132;DHT22;35149;51.196;6.204;2022-12-05T10:25:06;7.40;67.60
49132;DHT22;35149;51.196;6.204;2022-12-05T10:27:36;7.50;67.70
49132;DHT22;35149;51.196;6.204;2022-12-05T10:30:13;7.40;67.60
49132;DHT22;35149;51.196;6.204;2022-12-05T10:32:53;7.40;67.70
49132;DHT22;35149;51.196;6.204;2022-12-05T10:35:21;7.40;68.00
49132;DHT22;35149;51.196;6.204;2022-12-05T10:37:55;7.40;68.00
49132;DHT22;35149;51.196;6.204;2022-12-05T10:40:29;7.40;67.60
49132;DHT22;35149;51.196;6.204;2022-12-05T10:42:58;7.40;67.60
49132;DHT22;35149;51.196;6.204;2022-12-05T10:45:25;7.40;67.60
49132;DHT22;35149;51.196;6.204;2022-12-05T10:47:55;7.40;67.60
49132;DHT22;35149;51.196;6.204;2022-12-05T10:52:51;7.40;67.80
49132;DHT22;35149;51.196;6.204;2022-12-05T10:55:19;7.40;67.80
49132;DHT22;35149;51.196;6.204;2022-12-05T10:58:06;7.40;67.90
49132;DHT22;35149;51.196;6.204;2022-12-05T11:00:44;7.40;67.70
49132;DHT22;35149;51.196;6.204;2022-12-05T11:03:28;7.40;67.60
49132;DHT22;35149;51.196;6.204;2022-12-05T11:06:01;7.40;67.60
49132;DHT22;35149;51.196;6.204;2022-12-05T11:08:31;7.40;67.60
49132;DHT22;35149;51.196;6.204;2022-12-05T11:11:30;7.40;67.60
49132;DHT22;35149;51.196;6.204;2022-12-05T11:14:00;7.40;67.70
49132;DHT22;35149;51.196;6.204;2022-12-05T11:16:34;7.40;67.60
49132;DHT22;35149;51.196;6.204;2022-12-05T11:21:48;7.40;67.60
49132;DHT22;35149;51.196;6.204;2022-12-05T11:24:27;7.40;67.60
49132;DHT22;35149;51.196;6.204;2022-12-05T11:26:56;7.40;67.80
49132;DHT22;35149;51.196;6.204;2022-12-05T11:29:35;7.40;67.60
49132;DHT22;35149;51.196;6.204;2022-12-05T11:32:04;7.40;67.60
49132;DHT22;35149;51.196;6.204;2022-12-05T11:34:41;7.40;67.60
49132;DHT22;35149;51.196;6.204;2022-12-05T11:37:12;7.40;67.60
49132;DHT22;35149;51.196;6.204;2022-12-05T11:39:40;7.30;67.50
49132;DHT22;35149;51.196;6.204;2022-12-05T11:42:35;7.40;67.60
49132;DHT22;35149;51.196;6.204;2022-12-05T11:45:16;7.40;67.90
49132;DHT22;35149;51.196;6.204;2022-12-05T11:50:44;7.40;67.60
49132;DHT22;35149;51.196;6.204;2022-12-05T12:04:40;7.40;67.30
49132;DHT22;35149;51.196;6.204;2022-12-05T12:07:34;7.40;67.30
49132;DHT22;35149;51.196;6.204;2022-12-05T12:16:12;7.30;67.30
49132;DHT22;35149;51.196;6.204;2022-12-05T12:24:25;7.20;67.40
49132;DHT22;35149;51.196;6.204;2022-12-05T12:35:31;7.10;67.60
49132;DHT22;35149;51.196;6.204;2022-12-05T12:40:50;7.10;67.80
49132;DHT22;35149;51.196;6.204;2022-12-05T12:49:02;7.10;67.80
49132;DHT22;35149;51.196;6.204;2022-12-05T12:51:33;7.10;67.80
49132;DHT22;35149;51.196;6.204;2022-12-05T12:54:15;7.10;67.80
49132;DHT22;35149;51.196;6.204;2022-12-05T13:00:10;7.00;67.90
49132;DHT22;35149;51.196;6.204;2022-12-05T13:02:49;7.10;68.00
49132;DHT22;35149;51.196;6.204;2022-12-05T13:05:32;7.00;67.80
49132;DHT22;35149;51.196;6.204;2022-12-05T13:08:11;7.00;67.90
49132;DHT22;35149;51.196;6.204;2022-12-05T13:10:43;7.10;68.10
49132;DHT22;35149;51.196;6.204;2022-12-05T13:13:26;6.90;67.90
49132;DHT22;35149;51.196;6.204;2022-12-05T13:15:57;7.10;68.00
49132;DHT22;35149;51.196;6.204;2022-12-05T13:18:25;7.10;67.90
49132;DHT22;35149;51.196;6.204;2022-12-05T13:20:55;7.10;67.90
49132;DHT22;35149;51.196;6.204;2022-12-05T13:23:26;7.10;67.80
49132;DHT22;35149;51.196;6.204;2022-12-05T13:25:55;7.10;68.00
49132;DHT22;35149;51.196;6.204;2022-12-05T13:28:48;7.10;68.00
49132;DHT22;35149;51.196;6.204;2022-12-05T13:31:15;7.10;67.90
49132;DHT22;35149;51.196;6.204;2022-12-05T13:33:46;7.10;67.90
49132;DHT22;35149;51.196;6.204;2022-12-05T13:36:21;7.10;67.60
49132;DHT22;35149;51.196;6.204;2022-12-05T13:41:58;7.10;67.60
49132;DHT22;35149;51.196;6.204;2022-12-05T13:45:04;7.00;67.70
49132;DHT22;35149;51.196;6.204;2022-12-05T13:52:48;7.00;68.00
49132;DHT22;35149;51.196;6.204;2022-12-05T13:55:21;7.00;68.00
49132;DHT22;35149;51.196;6.204;2022-12-05T13:57:52;7.00;67.90
49132;DHT22;35149;51.196;6.204;2022-12-05T14:00:24;7.00;67.90
49132;DHT22;35149;51.196;6.204;2022-12-05T14:03:16;7.00;68.00
49132;DHT22;35149;51.196;6.204;2022-12-05T14:05:45;7.00;68.10
49132;DHT22;35149;51.196;6.204;2022-12-05T14:11:06;6.90;68.20
49132;DHT22;35149;51.196;6.204;2022-12-05T14:13:41;6.90;68.00
49132;DHT22;35149;51.196;6.204;2022-12-05T14:19:02;6.90;68.00
49132;DHT22;35149;51.196;6.204;2022-12-05T14:21:41;6.90;68.00
49132;DHT22;35149;51.196;6.204;2022-12-05T14:26:55;6.90;68.20
49132;DHT22;35149;51.196;6.204;2022-12-05T14:29:37;6.80;68.00
49132;DHT22;35149;51.196;6.204;2022-12-05T14:32:15;6.80;68.00
49132;DHT22;35149;51.196;6.204;2022-12-05T14:40:31;6.70;68.20
49132;DHT22;35149;51.196;6.204;2022-12-05T14:43:03;6.70;68.30
49132;DHT22;35149;51.196;6.204;2022-12-05T14:45:39;6.70;68.30
49132;DHT22;35149;51.196;6.204;2022-12-05T14:50:43;6.70;68.40
49132;DHT22;35149;51.196;6.204;2022-12-05T14:58:40;6.70;68.40
49132;DHT22;35149;51.196;6.204;2022-12-05T15:06:51;6.70;68.40
49132;DHT22;35149;51.196;6.204;2022-12-05T15:12:56;6.60;68.50
49132;DHT22;35149;51.196;6.204;2022-12-05T15:15:41;6.60;68.50
49132;DHT22;35149;51.196;6.204;2022-12-05T15:18:23;6.60;68.40
49132;DHT22;35149;51.196;6.204;2022-12-05T15:21:08;6.60;68.50
49132;DHT22;35149;51.196;6.204;2022-12-05T15:29:12;6.50;68.50
49132;DHT22;35149;51.196;6.204;2022-12-05T15:35:05;6.50;68.50
49132;DHT22;35149;51.196;6.204;2022-12-05T15:37:49;6.50;68.70
49132;DHT22;35149;51.196;6.204;2022-12-05T15:40:19;6.50;68.40
49132;DHT22;35149;51.196;6.204;2022-12-05T15:42:49;6.40;68.40
49132;DHT22;35149;51.196;6.204;2022-12-05T15:45:21;6.40;68.50
49132;DHT22;35149;51.196;6.204;2022-12-05T15:47:50;6.40;68.60
49132;DHT22;35149;51.196;6.204;2022-12-05T15:55:52;6.30;68.60
49132;DHT22;35149;51.196;6.204;2022-12-05T16:03:48;6.20;68.70
49132;DHT22;35149;51.196;6.204;2022-12-05T16:06:35;6.20;69.00
49132;DHT22;35149;51.196;6.204;2022-12-05T16:09:08;6.20;69.20
49132;DHT22;35149;51.196;6.204;2022-12-05T16:11:39;6.20;69.00
49132;DHT22;35149;51.196;6.204;2022-12-05T16:14:15;6.20;69.00
49132;DHT22;35149;51.196;6.204;2022-12-05T16:17:02;6.20;69.10
49132;DHT22;35149;51.196;6.204;2022-12-05T16:19:30;6.10;69.10
49132;DHT22;35149;51.196;6.204;2022-12-05T16:22:05;6.10;69.20
49132;DHT22;35149;51.196;6.204;2022-12-05T16:24:39;6.10;69.30
49132;DHT22;35149;51.196;6.204;2022-12-05T16:32:38;6.10;69.50
49132;DHT22;35149;51.196;6.204;2022-12-05T16:38:02;6.10;69.50
49132;DHT22;35149;51.196;6.204;2022-12-05T16:40:29;6.10;69.30
49132;DHT22;35149;51.196;6.204;2022-12-05T16:43:16;6.10;69.20
49132;DHT22;35149;51.196;6.204;2022-12-05T16:45:44;6.10;69.40
49132;DHT22;35149;51.196;6.204;2022-12-05T16:48:17;6.10;69.30
49132;DHT22;35149;51.196;6.204;2022-12-05T16:50:45;6.10;69.40
49132;DHT22;35149;51.196;6.204;2022-12-05T16:55:40;6.10;69.40
49132;DHT22;35149;51.196;6.204;2022-12-05T16:58:13;6.00;69.40
49132;DHT22;35149;51.196;6.204;2022-12-05T17:00:42;6.00;69.60
49132;DHT22;35149;51.196;6.204;2022-12-05T17:03:11;6.00;69.50
49132;DHT22;35149;51.196;6.204;2022-12-05T17:05:59;6.00;69.70
49132;DHT22;35149;51.196;6.204;2022-12-05T17:08:26;6.00;69.60
49132;DHT22;35149;51.196;6.204;2022-12-05T17:10:53;6.00;69.60
49132;DHT22;35149;51.196;6.204;2022-12-05T17:13:20;6.10;69.80
49132;DHT22;35149;51.196;6.204;2022-12-05T17:15:47;6.10;69.80
49132;DHT22;35149;51.196;6.204;2022-12-05T17:18:18;6.00;69.70
49132;DHT22;35149;51.196;6.204;2022-12-05T17:20:53;6.10;69.80
49132;DHT22;35149;51.196;6.204;2022-12-05T17:23:21;6.10;69.70
49132;DHT22;35149;51.196;6.204;2022-12-05T17:25:51;6.10;69.70
49132;DHT22;35149;51.196;6.204;2022-12-05T17:28:19;6.10;69.70
49132;DHT22;35149;51.196;6.204;2022-12-05T17:30:48;6.10;69.70
49132;DHT22;35149;51.196;6.204;2022-12-05T17:33:18;6.00;69.70
49132;DHT22;35149;51.196;6.204;2022-12-05T17:35:47;6.10;69.80
49132;DHT22;35149;51.196;6.204;2022-12-05T17:38:17;6.10;69.90
49132;DHT22;35149;51.196;6.204;2022-12-05T17:40:44;6.10;69.90
49132;DHT22;35149;51.196;6.204;2022-12-05T17:43:12;6.10;69.80
49132;DHT22;35149;51.196;6.204;2022-12-05T17:45:50;6.10;69.90
49132;DHT22;35149;51.196;6.204;2022-12-05T17:48:19;6.10;69.80
49132;DHT22;35149;51.196;6.204;2022-12-05T17:50:47;6.10;69.80
49132;DHT22;35149;51.196;6.204;2022-12-05T17:53:16;6.10;69.70
49132;DHT22;35149;51.196;6.204;2022-12-05T17:55:43;6.00;69.80
49132;DHT22;35149;51.196;6.204;2022-12-05T17:58:10;6.00;69.70
49132;DHT22;35149;51.196;6.204;2022-12-05T18:00:37;6.00;69.70
49132;DHT22;35149;51.196;6.204;2022-12-05T18:03:05;6.00;69.80
49132;DHT22;35149;51.196;6.204;2022-12-05T18:05:32;6.00;69.80
49132;DHT22;35149;51.196;6.204;2022-12-05T18:08:00;6.00;70.00
49132;DHT22;35149;51.196;6.204;2022-12-05T18:10:27;6.00;70.00
49132;DHT22;35149;51.196;6.204;2022-12-05T18:12:53;6.10;70.00
49132;DHT22;35149;51.196;6.204;2022-12-05T18:15:20;6.10;70.00
49132;DHT22;35149;51.196;6.204;2022-12-05T18:17:47;6.10;69.90
49132;DHT22;35149;51.196;6.204;2022-12-05T18:20:14;6.00;69.80
49132;DHT22;35149;51.196;6.204;2022-12-05T18:22:41;6.00;69.80
49132;DHT22;35149;51.196;6.204;2022-12-05T18:25:13;6.00;69.90
49132;DHT22;35149;51.196;6.204;2022-12-05T18:27:42;6.00;70.00
49132;DHT22;35149;51.196;6.204;2022-12-05T18:30:10;6.00;70.00
49132;DHT22;35149;51.196;6.204;2022-12-05T18:32:37;6.00;70.10
49132;DHT22;35149;51.196;6.204;2022-12-05T18:35:06;6.00;70.00
49132;DHT22;35149;51.196;6.204;2022-12-05T18:37:38;6.00;70.10
49132;DHT22;35149;51.196;6.204;2022-12-05T18:40:09;6.00;70.10
49132;DHT22;35149;51.196;6.204;2022-12-05T18:42:38;6.00;70.10
49132;DHT22;35149;51.196;6.204;2022-12-05T18:45:09;6.00;70.10
49132;DHT22;35149;51.196;6.204;2022-12-05T18:47:36;6.00;70.30
49132;DHT22;35149;51.196;6.204;2022-12-05T18:50:03;6.00;70.20
49132;DHT22;35149;51.196;6.204;2022-12-05T18:52:44;6.00;70.20
49132;DHT22;35149;51.196;6.204;2022-12-05T18:55:13;6.00;70.20
49132;DHT22;35149;51.196;6.204;2022-12-05T18:57:52;6.00;70.10
49132;DHT22;35149;51.196;6.204;2022-12-05T19:00:22;6.00;70.20
49132;DHT22;35149;51.196;6.204;2022-12-05T19:02:49;6.00;70.40
49132;DHT22;35149;51.196;6.204;2022-12-05T19:05:17;6.00;70.20
49132;DHT22;35149;51.196;6.204;2022-12-05T19:07:44;6.00;70.10